Time;durP1;ratioP1;P1;durP2;ratioP2;P2;SDS_P1;SDS_P2;PMS_P1;PMS_P2;Temp;Humidity;BMP_temperature;BMP_pressure;BME280_temperature;BME280_humidity;BME280_pressure;Samples;Min_cycle;Max_cycle;Signal;HPM_P1;HPM_P2
2021/05/17 00:00:28;;;;;;;18.95;4.05;;;12.00;99.90;;;11.43;98.78;100363.53;4136970;28;20363;-69
2021/05/17 00:02:29;;;;;;;24.98;4.82;;;12.10;99.90;;;11.40;98.61;100369.16;4135472;28;20129;-68
2021/05/17 00:04:33;;;;;;;25.70;5.07;;;12.00;99.90;;;11.36;98.52;100367.84;4135511;28;20596;-68
2021/05/17 00:06:34;;;;;;;18.95;4.50;;;12.00;99.90;;;11.43;99.17;100376.75;4135715;28;20031;-68
2021/05/17 00:08:35;;;;;;;24.80;5.43;;;12.10;99.90;;;11.38;98.07;100376.44;4137098;28;20486;-68
2021/05/17 00:10:37;;;;;;;25.88;6.03;;;12.10;99.90;;;11.40;98.13;100380.56;4147771;28;20034;-68
2021/05/17 00:12:38;;;;;;;25.48;5.88;;;12.10;99.90;;;11.38;98.42;100381.72;4136534;28;20030;-68
2021/05/17 00:14:40;;;;;;;16.98;4.95;;;12.00;99.90;;;11.36;98.80;100386.31;4136314;28;20038;-68
2021/05/17 00:16:41;;;;;;;24.23;5.00;;;12.00;99.90;;;11.44;98.53;100381.03;4136495;28;20057;-68
2021/05/17 00:18:43;;;;;;;16.73;3.95;;;12.10;99.90;;;11.37;99.75;100382.69;4135615;28;20030;-68
2021/05/17 00:20:44;;;;;;;24.50;6.53;;;12.00;99.90;;;11.36;100.00;100373.13;4136620;28;20034;-68
2021/05/17 00:22:45;;;;;;;21.00;5.65;;;12.00;99.90;;;11.27;100.00;100353.84;4135361;28;20035;-68
2021/05/17 00:24:47;;;;;;;20.60;4.70;;;12.00;99.90;;;11.41;99.91;100376.91;4151717;28;20025;-68
2021/05/17 00:26:48;;;;;;;25.27;6.28;;;12.00;99.90;;;11.44;100.00;100386.31;4136579;28;20390;-68
2021/05/17 00:28:50;;;;;;;20.02;4.22;;;12.00;99.90;;;11.32;100.00;100372.63;4135236;28;20027;-68
2021/05/17 00:30:51;;;;;;;20.73;4.55;;;12.00;99.90;;;11.34;100.00;100385.69;4135260;28;20038;-68
2021/05/17 00:32:53;;;;;;;24.40;6.25;;;12.00;99.90;;;11.42;100.00;100383.00;4136342;28;20035;-68
2021/05/17 00:34:56;;;;;;;27.77;6.13;;;12.00;99.90;;;11.36;99.97;100388.97;4135327;28;20041;-68
2021/05/17 00:36:57;;;;;;;20.27;5.40;;;12.10;99.90;;;11.39;99.14;100399.19;4135394;28;20034;-68
2021/05/17 00:39:00;;;;;;;18.08;4.70;;;12.00;99.90;;;11.43;99.30;100397.88;4136427;28;20062;-68
2021/05/17 00:41:01;;;;;;;27.02;5.75;;;12.00;99.90;;;11.16;99.33;100390.34;4136225;28;20064;-68
2021/05/17 00:43:07;;;;;;;16.65;4.88;;;12.00;99.90;;;11.23;99.97;100388.69;4135040;28;20026;-68
2021/05/17 00:45:16;;;;;;;19.35;4.43;;;11.90;99.90;;;11.26;99.90;100409.47;4136456;28;20385;-69
2021/05/17 00:47:18;;;;;;;26.85;5.00;;;12.00;99.90;;;11.09;100.00;100396.28;4136348;28;20026;-68
2021/05/17 00:49:19;;;;;;;21.52;4.20;;;11.90;99.90;;;11.11;100.00;100402.22;4136336;28;20026;-69
2021/05/17 00:51:20;;;;;;;17.98;5.05;;;11.80;99.90;;;11.25;100.00;100405.19;4136286;28;20030;-69
2021/05/17 00:53:21;;;;;;;21.30;4.53;;;11.80;99.90;;;11.14;100.00;100413.44;4136315;28;20026;-69
2021/05/17 00:55:24;;;;;;;19.08;4.53;;;11.90;99.90;;;11.26;100.00;100394.44;4149174;28;20032;-68
2021/05/17 00:57:25;;;;;;;21.85;5.22;;;11.90;99.90;;;11.19;100.00;100392.66;4136001;28;20460;-68
2021/05/17 00:59:27;;;;;;;13.60;3.97;;;11.90;99.90;;;11.21;100.00;100388.00;4136196;28;20069;-68
2021/05/17 01:01:28;;;;;;;18.45;4.47;;;11.90;99.90;;;11.18;100.00;100391.00;4136038;28;20078;-68
2021/05/17 01:03:29;;;;;;;15.13;3.33;;;11.80;99.90;;;11.20;100.00;100394.31;4135867;28;20033;-68
2021/05/17 01:05:30;;;;;;;21.27;4.97;;;11.80;99.90;;;11.05;99.03;100396.81;4135062;28;20094;-68
2021/05/17 01:07:32;;;;;;;19.63;5.25;;;11.70;99.90;;;11.04;99.20;100387.22;4136179;28;20034;-68
2021/05/17 01:09:34;;;;;;;22.65;5.40;;;11.60;99.90;;;10.83;99.74;100408.88;4143144;28;20028;-69
2021/05/17 01:11:36;;;;;;;20.45;4.43;;;11.60;99.90;;;10.77;99.39;100387.59;4137815;28;20030;-69
2021/05/17 01:13:41;;;;;;;19.83;4.70;;;11.50;99.90;;;11.00;98.98;100415.78;4136261;28;20026;-69
2021/05/17 01:15:42;;;;;;;23.58;4.25;;;11.50;99.90;;;11.07;98.83;100419.41;4135933;28;20081;-68
2021/05/17 01:17:44;;;;;;;15.45;3.63;;;11.50;99.90;;;11.07;98.99;100415.94;4135890;28;20037;-69
2021/05/17 01:20:07;;;;;;;17.08;3.47;;;11.40;99.90;;;10.88;98.78;100416.25;4135746;28;20034;-68
2021/05/17 01:22:21;;;;;;;20.35;3.78;;;11.30;99.90;;;10.94;97.37;100411.16;4135831;28;20030;-69
2021/05/17 01:24:22;;;;;;;13.03;3.67;;;11.40;99.90;;;10.92;97.68;100399.94;4136044;28;20029;-69
2021/05/17 01:26:26;;;;;;;16.35;4.20;;;11.30;99.90;;;10.86;97.39;100408.53;4135640;28;20641;-69
2021/05/17 01:28:30;;;;;;;14.13;4.03;;;11.40;99.90;;;10.80;98.50;100409.19;4135849;28;20033;-68
2021/05/17 01:30:31;;;;;;;16.85;3.78;;;11.30;99.90;;;10.84;98.41;100407.06;4135705;28;20034;-68
2021/05/17 01:32:34;;;;;;;26.73;6.05;;;11.20;99.90;;;10.81;97.66;100405.53;4135742;28;20030;-68
2021/05/17 01:34:37;;;;;;;22.48;3.97;;;11.20;99.90;;;10.76;97.16;100417.59;4134649;28;20423;-69
2021/05/17 01:36:39;;;;;;;17.38;4.20;;;11.20;99.90;;;10.73;97.77;100408.19;4135779;28;20031;-68
2021/05/17 01:38:53;;;;;;;21.02;4.85;;;11.20;99.90;;;10.76;98.03;100415.78;4135985;28;20482;-68
2021/05/17 01:40:57;;;;;;;16.58;4.90;;;11.10;99.90;;;10.72;97.79;100403.91;4135522;28;20023;-69
2021/05/17 01:43:00;;;;;;;22.33;5.90;;;11.10;99.90;;;10.82;97.91;100411.66;4135659;28;20117;-68
2021/05/17 01:45:02;;;;;;;19.13;5.28;;;11.10;99.90;;;10.92;97.79;100425.50;4134756;28;20464;-69
2021/05/17 01:47:04;;;;;;;27.00;6.22;;;11.20;99.90;;;10.81;98.36;100420.56;4135725;28;20027;-68
2021/05/17 01:49:05;;;;;;;16.00;5.05;;;11.20;99.90;;;10.75;98.88;100408.84;4135665;28;20113;-68
2021/05/17 01:51:09;;;;;;;16.65;4.47;;;11.10;99.90;;;10.83;98.61;100429.13;4134627;28;20053;-69
2021/05/17 01:53:11;;;;;;;20.65;4.35;;;11.20;99.90;;;10.85;98.59;100427.16;4135671;28;20035;-69
2021/05/17 01:55:13;;;;;;;20.08;7.68;;;11.20;99.90;;;10.75;98.80;100413.31;4147748;28;20030;-68
2021/05/17 01:57:15;;;;;;;25.38;5.35;;;11.20;99.90;;;10.54;99.85;100419.88;4136119;28;20033;-68
2021/05/17 01:59:32;;;;;;;17.27;4.03;;;11.10;99.90;;;10.74;99.42;100423.03;4134505;28;20034;-68
2021/05/17 02:01:33;;;;;;;23.75;4.38;;;11.20;99.90;;;10.78;99.43;100420.91;4134128;28;20038;-69
2021/05/17 02:03:36;;;;;;;24.92;6.15;;;11.10;99.90;;;10.71;99.18;100409.34;4135555;28;20018;-69
2021/05/17 02:05:37;;;;;;;20.75;5.20;;;11.20;99.90;;;10.76;99.25;100417.59;4134569;28;20585;-68
2021/05/17 02:07:38;;;;;;;17.45;3.80;;;11.20;99.90;;;10.67;99.88;100418.56;4135583;28;20033;-69
2021/05/17 02:09:40;;;;;;;21.40;3.83;;;11.20;99.90;;;10.70;99.86;100424.34;4144954;28;20405;-69
2021/05/17 02:11:41;;;;;;;19.23;4.72;;;11.10;99.90;;;10.79;98.88;100420.72;4135838;28;20486;-69
2021/05/17 02:13:43;;;;;;;22.90;5.28;;;11.10;99.90;;;10.87;98.82;100422.56;4135660;28;20031;-68
2021/05/17 02:15:47;;;;;;;32.55;6.32;;;11.20;99.90;;;10.66;98.81;100420.41;4135539;28;20046;-69
2021/05/17 02:18:04;;;;;;;;;;;11.20;99.90;;;10.58;99.24;100407.19;4135889;28;20031;-69
2021/05/17 02:20:06;;;;;;;15.23;4.10;;;11.10;99.90;;;10.69;99.41;100428.00;4135587;28;19920;-69
2021/05/17 02:22:07;;;;;;;20.63;4.32;;;11.10;99.90;;;10.77;98.59;100429.78;4135704;28;20489;-69
2021/05/17 02:24:11;;;;;;;17.17;3.33;;;11.10;99.90;;;10.70;98.86;100434.91;4135579;28;20030;-69
2021/05/17 02:26:12;;;;;;;14.93;3.53;;;11.10;99.90;;;10.74;97.95;100435.41;4134106;28;20518;-69
2021/05/17 02:28:15;;;;;;;18.27;3.67;;;11.10;99.90;;;10.57;98.70;100434.56;4135639;28;20034;-69
2021/05/17 02:30:17;;;;;;;17.48;4.78;;;11.10;99.90;;;10.63;99.57;100439.19;4134455;28;20026;-69
2021/05/17 02:32:24;;;;;;;17.08;4.38;;;11.10;99.90;;;10.69;98.41;100443.81;4134189;28;20056;-69
2021/05/17 02:34:25;;;;;;;20.92;4.38;;;11.10;99.90;;;10.71;98.96;100447.13;4135414;28;20031;-69
2021/05/17 02:36:27;;;;;;;25.40;5.20;;;11.00;99.90;;;10.63;98.80;100446.28;4135587;28;20022;-69
2021/05/17 02:38:28;;;;;;;20.17;5.07;;;10.90;99.90;;;10.69;98.67;100449.09;4138279;28;20374;-68
2021/05/17 02:40:30;;;;;;;26.98;5.25;;;11.00;99.90;;;10.66;98.56;100443.31;4138621;28;20520;-68
2021/05/17 02:42:35;;;;;;;21.55;5.18;;;11.00;99.90;;;10.72;98.20;100454.00;4138175;28;20023;-69
2021/05/17 02:44:36;;;;;;;27.08;5.82;;;11.00;99.90;;;10.71;98.80;100456.84;4138547;28;20034;-68
2021/05/17 02:46:37;;;;;;;23.92;5.90;;;11.10;99.90;;;10.84;98.62;100465.91;4138334;28;20494;-68
2021/05/17 02:48:41;;;;;;;30.13;6.03;;;11.20;99.90;;;10.73;99.16;100442.47;4138370;28;20481;-69
2021/05/17 02:50:46;;;;;;;20.60;5.32;;;11.20;99.90;;;10.87;98.94;100457.66;4138319;28;20129;-68
2021/05/17 02:52:47;;;;;;;22.45;5.95;;;11.30;99.90;;;10.91;99.20;100459.00;4138129;28;20037;-69
2021/05/17 02:55:27;;;;;;;19.10;5.45;;;11.30;99.90;;;10.89;99.31;100460.97;4147119;28;20037;-68
2021/05/17 02:57:50;;;;;;;20.77;6.75;;;11.30;99.90;;;10.90;99.74;100457.31;4142109;28;20073;-70
2021/05/17 03:00:15;;;;;;;21.42;5.30;;;11.40;99.90;;;10.97;99.02;100453.03;4154248;28;20030;-69
2021/05/17 03:02:20;;;;;;;16.77;4.55;;;11.40;99.90;;;10.97;99.62;100452.22;4154206;28;20101;-68
2021/05/17 03:04:21;;;;;;;24.33;5.28;;;11.40;99.90;;;11.16;98.07;100461.63;4153078;28;20036;-68
2021/05/17 03:06:22;;;;;;;21.52;5.55;;;11.50;99.90;;;11.11;98.07;100459.47;4153104;28;20022;-69
2021/05/17 03:08:29;;;;;;;20.85;5.18;;;11.50;99.90;;;11.09;97.84;100462.28;4154069;28;20040;-68
2021/05/17 03:10:34;;;;;;;16.80;6.13;;;11.60;99.90;;;11.16;97.46;100472.19;4152853;28;20041;-69
2021/05/17 03:12:39;;;;;;;15.00;4.90;;;11.60;99.90;;;11.20;97.57;100462.94;4153993;28;20030;-69
2021/05/17 03:14:43;;;;;;;23.13;6.13;;;11.60;99.90;;;11.25;97.45;100456.16;4154063;28;20112;-68
2021/05/17 03:16:49;;;;;;;19.45;6.38;;;11.70;99.90;;;11.25;97.33;100460.63;4152769;28;20452;-68
2021/05/17 03:18:53;;;;;;;27.17;5.35;;;11.70;99.90;;;11.24;97.02;100449.22;4152812;28;20068;-68
2021/05/17 03:20:54;;;;;;;22.38;5.00;;;11.70;99.90;;;11.33;96.80;100456.16;4152832;28;20038;-69
2021/05/17 03:22:57;;;;;;;25.40;4.75;;;11.70;99.90;;;11.27;97.06;100458.63;4153732;28;20026;-68
2021/05/17 03:25:01;;;;;;;21.15;4.97;;;11.80;99.90;;;11.13;97.37;100440.84;4154144;28;20425;-68
2021/05/17 03:27:27;;;;;;;14.63;4.80;;;11.80;99.90;;;11.21;97.78;100462.75;4152720;28;20033;-68
2021/05/17 03:29:28;;;;;;;20.05;4.45;;;11.80;99.90;;;11.22;97.33;100450.38;4153718;28;20026;-69
2021/05/17 03:31:29;;;;;;;19.77;4.13;;;11.80;99.90;;;11.34;97.38;100470.19;4153884;28;20412;-68
2021/05/17 03:33:30;;;;;;;22.92;4.13;;;11.80;99.90;;;11.32;97.86;100469.53;4153906;28;20038;-69
2021/05/17 03:35:31;;;;;;;20.48;4.18;;;11.80;99.90;;;11.22;98.04;100461.78;4153838;28;20037;-69
2021/05/17 03:37:32;;;;;;;17.65;5.43;;;11.80;99.90;;;11.23;97.08;100478.47;4153739;28;20113;-69
2021/05/17 03:39:33;;;;;;;20.98;4.85;;;11.80;99.90;;;11.27;97.23;100477.09;4153788;28;20124;-69
2021/05/17 03:41:34;;;;;;;19.80;5.00;;;11.90;99.90;;;11.40;96.39;100480.91;4153476;28;20036;-69
2021/05/17 03:43:35;;;;;;;28.67;5.53;;;11.90;99.90;;;11.45;95.90;100491.78;4153688;28;20022;-68
2021/05/17 03:45:36;;;;;;;24.98;4.85;;;12.00;99.90;;;11.35;96.34;100483.19;4153606;28;20026;-68
2021/05/17 03:47:37;;;;;;;14.18;3.47;;;12.00;99.90;;;11.41;96.09;100481.75;4152302;28;20029;-69
2021/05/17 03:49:38;;;;;;;37.03;6.78;;;11.90;99.90;;;11.39;96.36;100483.69;4151477;28;20018;-69
2021/05/17 03:51:39;;;;;;;18.60;4.50;;;12.00;99.90;;;11.42;95.27;100480.72;4153802;28;20474;-69
2021/05/17 03:53:40;;;;;;;24.40;4.93;;;11.90;99.90;;;11.23;95.24;100473.97;4152299;28;20030;-68
2021/05/17 03:55:41;;;;;;;16.65;4.25;;;12.00;99.90;;;11.34;95.39;100486.84;4149416;28;20129;-69
2021/05/17 03:57:42;;;;;;;13.02;4.00;;;12.00;99.90;;;11.43;94.91;100485.84;4137153;28;20022;-69
2021/05/17 03:59:45;;;;;;;15.18;3.65;;;12.00;99.90;;;11.40;94.59;100495.91;4136065;28;20031;-69
2021/05/17 04:01:47;;;;;;;15.88;4.35;;;12.10;99.90;;;11.38;94.11;100490.00;4135627;28;20046;-68
2021/05/17 04:03:48;;;;;;;12.23;2.95;;;12.00;99.90;;;11.43;93.99;100501.69;4136097;28;20053;-68
2021/05/17 04:15:09;;;;;;;14.75;4.07;;;11.70;99.90;;;11.10;95.26;100515.91;4136810;28;20096;-69
2021/05/17 04:17:10;;;;;;;14.10;3.85;;;11.70;99.90;;;11.05;95.90;100512.94;4136796;28;20033;-69
2021/05/17 04:19:12;;;;;;;18.20;4.45;;;11.60;99.90;;;11.08;96.08;100509.94;4136978;28;20482;-69
2021/05/17 04:21:14;;;;;;;16.42;4.40;;;11.60;99.90;;;10.85;96.46;100488.66;4136663;28;20026;-68
2021/05/17 04:23:19;;;;;;;17.90;3.95;;;11.50;99.90;;;11.12;96.10;100524.47;4136817;28;20084;-69
2021/05/17 04:25:19;;;;;;;13.95;4.30;;;11.50;99.90;;;11.01;96.78;100528.28;4136835;28;20038;-69
2021/05/17 04:27:20;;;;;;;14.73;3.25;;;11.50;99.90;;;11.08;96.27;100526.63;4136456;28;20026;-68
2021/05/17 04:29:21;;;;;;;11.07;3.40;;;11.50;99.90;;;11.13;96.53;100525.31;4136698;28;20482;-68
2021/05/17 04:31:22;;;;;;;13.57;3.42;;;11.60;99.90;;;11.14;96.14;100535.69;4135676;28;20124;-68
2021/05/17 04:33:23;;;;;;;14.63;4.47;;;11.60;99.90;;;11.20;96.04;100542.16;4136678;28;20169;-69
2021/05/17 04:35:24;;;;;;;15.75;4.25;;;11.60;99.90;;;11.09;95.90;100528.28;4136637;28;20034;-68
2021/05/17 04:37:25;;;;;;;18.42;4.20;;;11.70;99.90;;;11.19;95.66;100525.47;4136791;28;20034;-68
2021/05/17 04:39:26;;;;;;;16.67;3.67;;;11.70;99.90;;;11.19;96.19;100535.22;4136325;28;20110;-69
2021/05/17 04:41:28;;;;;;;17.83;3.72;;;11.70;99.90;;;11.11;96.35;100534.22;4135272;28;20023;-68
2021/05/17 04:43:28;;;;;;;18.83;4.25;;;11.60;99.90;;;11.16;96.60;100540.81;4136685;28;20425;-68
2021/05/17 04:45:29;;;;;;;21.10;4.05;;;11.60;99.90;;;11.08;96.48;100542.44;4136397;28;20031;-69
2021/05/17 04:47:30;;;;;;;17.85;3.85;;;11.70;99.90;;;11.01;96.95;100538.00;4136378;28;20030;-69
2021/05/17 04:49:31;;;;;;;16.80;4.55;;;11.60;99.90;;;10.95;97.60;100543.94;4136533;28;20052;-68
2021/05/17 04:51:32;;;;;;;17.65;3.90;;;11.50;99.90;;;11.09;96.41;100551.19;4136287;28;20441;-68
2021/05/17 04:53:33;;;;;;;20.33;4.55;;;11.60;99.90;;;11.19;95.99;100545.78;4136377;28;20022;-68
2021/05/17 04:55:35;;;;;;;18.50;5.03;;;11.60;99.90;;;11.14;96.56;100554.16;4150033;28;20061;-68
2021/05/17 04:57:36;;;;;;;21.65;4.47;;;11.60;99.90;;;11.14;96.79;100548.88;4147270;28;20027;-68
2021/05/17 04:59:37;;;;;;;22.52;5.00;;;11.60;99.90;;;10.98;97.20;100543.63;4136066;28;20026;-68
2021/05/17 05:01:38;;;;;;;19.88;3.75;;;11.60;99.90;;;11.13;96.88;100557.81;4135981;28;20043;-68
2021/05/17 05:03:39;;;;;;;18.35;4.32;;;11.60;99.90;;;11.09;97.53;100556.47;4136103;28;20053;-68
2021/05/17 05:05:40;;;;;;;25.92;5.22;;;11.50;99.90;;;11.13;97.30;100564.91;4136475;28;20037;-68
2021/05/17 05:07:41;;;;;;;16.05;4.32;;;11.60;99.90;;;11.14;96.99;100564.72;4136349;28;20057;-68
2021/05/17 05:09:42;;;;;;;17.65;4.55;;;11.60;99.90;;;11.08;97.45;100566.22;4144499;28;20061;-68
2021/05/17 05:11:43;;;;;;;22.25;5.18;;;11.50;99.90;;;11.11;97.64;100571.16;4167252;28;20088;-68
2021/05/17 05:13:44;;;;;;;19.00;5.30;;;11.60;99.90;;;11.20;97.54;100572.00;4152436;28;20401;-69
2021/05/17 05:15:45;;;;;;;15.18;4.45;;;11.60;99.90;;;11.25;97.09;100576.78;4152372;28;20025;-69
2021/05/17 05:17:45;;;;;;;18.10;4.50;;;11.60;99.90;;;11.16;97.51;100572.50;4152499;28;20037;-68
2021/05/17 05:19:46;;;;;;;19.08;4.95;;;11.60;99.90;;;11.33;97.07;100580.25;4152128;28;20041;-68
2021/05/17 05:21:47;;;;;;;20.27;4.22;;;11.70;99.90;;;11.30;97.18;100580.59;4152359;28;20030;-68
2021/05/17 05:23:48;;;;;;;20.80;4.65;;;11.70;99.90;;;11.15;97.46;100578.75;4151326;28;20089;-68
2021/05/17 05:28:00;;;;;;;23.45;4.55;;;11.70;99.90;;;11.30;97.09;100592.97;4166229;28;20030;-69
2021/05/17 05:30:18;;;;;;;17.67;4.22;;;11.80;99.90;;;11.26;96.32;100596.94;4150917;28;20057;-68
2021/05/17 05:34:22;;;;;;;18.50;3.60;;;11.80;99.90;;;11.17;96.89;100595.28;4150899;28;20022;-68
2021/05/17 05:36:25;;;;;;;17.67;4.00;;;11.80;99.90;;;11.32;96.51;100606.84;4151161;28;20037;-69
2021/05/17 05:38:26;;;;;;;15.68;3.58;;;11.80;99.90;;;11.25;96.17;100608.47;4151095;28;20034;-68
2021/05/17 05:40:26;;;;;;;13.30;4.18;;;11.80;99.90;;;11.34;96.17;100610.13;4150873;28;20030;-68
2021/05/17 05:42:27;;;;;;;13.65;3.65;;;11.90;99.90;;;11.49;94.81;100613.78;4151830;28;20133;-68
2021/05/17 05:44:28;;;;;;;12.68;3.15;;;11.90;99.90;;;11.44;94.54;100606.34;4151959;28;20556;-68
2021/05/17 05:46:29;;;;;;;16.23;3.78;;;12.00;99.90;;;11.43;94.23;100611.78;4150876;28;20062;-68
2021/05/17 05:48:30;;;;;;;15.38;3.20;;;12.00;99.90;;;11.23;95.06;100616.56;4152072;28;20022;-68
2021/05/17 05:50:31;;;;;;;19.27;3.92;;;11.90;99.90;;;11.15;95.71;100602.53;4152099;28;20045;-68
2021/05/17 05:52:32;;;;;;;16.60;5.90;;;11.90;99.90;;;11.25;94.86;100622.50;4150788;28;20034;-68
2021/05/17 05:54:34;;;;;;;17.35;3.90;;;11.90;99.90;;;11.37;94.79;100636.22;4151999;28;20030;-68
2021/05/17 05:56:35;;;;;;;16.40;3.47;;;11.90;99.90;;;11.41;94.21;100637.56;4140564;28;20026;-68
2021/05/17 05:58:36;;;;;;;8.80;2.30;;;12.00;99.90;;;11.41;94.00;100611.16;4135616;28;20038;-68
2021/05/17 06:00:38;;;;;;;13.27;3.67;;;12.10;99.90;;;11.66;92.67;100626.00;4135983;28;20043;-68
2021/05/17 06:02:39;;;;;;;15.05;3.83;;;12.20;99.90;;;11.63;92.05;100629.78;4134220;28;20417;-68
2021/05/17 06:04:41;;;;;;;14.55;3.35;;;12.30;99.90;;;11.65;92.32;100624.31;4118290;28;20033;-68
2021/05/17 06:06:41;;;;;;;12.95;3.53;;;12.40;99.90;;;11.73;92.20;100627.03;4134390;28;20441;-68
2021/05/17 06:08:45;;;;;;;12.55;2.50;;;12.40;99.90;;;11.78;92.50;100643.19;4137385;28;20037;-69
2021/05/17 06:10:47;;;;;;;15.35;4.00;;;12.40;99.90;;;11.69;92.35;100638.88;4131864;28;20042;-69
2021/05/17 06:12:49;;;;;;;11.88;3.85;;;12.40;99.90;;;11.77;92.74;100644.19;4152306;28;20497;-69
2021/05/17 06:14:53;;;;;;;12.15;3.13;;;12.40;99.90;;;11.76;92.50;100645.19;4138627;28;20045;-68
2021/05/17 06:16:55;;;;;;;13.82;3.35;;;12.50;99.90;;;11.71;92.27;100660.69;4137460;28;20045;-68
2021/05/17 06:18:56;;;;;;;8.60;2.42;;;12.50;99.90;;;11.99;92.04;100655.91;4137530;28;20045;-69
2021/05/17 06:20:58;;;;;;;13.13;3.13;;;12.60;99.90;;;12.12;91.38;100662.34;4132383;28;20536;-69
2021/05/17 06:22:59;;;;;;;19.02;3.83;;;12.90;99.90;;;11.98;90.71;100672.75;4138584;28;20595;-69
2021/05/17 06:25:03;;;;;;;16.13;3.20;;;12.90;99.90;;;12.16;90.71;100673.38;4138730;28;20054;-69
2021/05/17 06:27:05;;;;;;;18.13;4.50;;;13.00;99.90;;;12.11;89.98;100670.44;4138352;28;20023;-69
2021/05/17 06:29:07;;;;;;;18.08;3.13;;;13.00;99.90;;;12.18;91.14;100682.78;4138428;28;20042;-68
2021/05/17 06:31:10;;;;;;;10.80;2.58;;;13.10;99.90;;;12.05;91.00;100674.56;4138557;28;20049;-69
2021/05/17 06:33:14;;;;;;;10.02;2.92;;;13.10;99.90;;;12.18;91.18;100676.72;4138453;28;20093;-68
2021/05/17 06:35:22;;;;;;;14.50;3.30;;;13.20;99.90;;;12.19;90.52;100688.91;4138460;28;20030;-69
2021/05/17 06:37:23;;;;;;;13.55;2.60;;;13.20;99.90;;;12.39;89.95;100692.88;4137135;28;20041;-69
2021/05/17 06:39:24;;;;;;;12.77;3.10;;;13.40;99.90;;;12.43;90.33;100702.09;4138158;28;20027;-69
2021/05/17 06:41:25;;;;;;;18.38;2.67;;;13.50;99.90;;;12.50;88.70;100707.53;4137957;28;20118;-69
2021/05/17 06:43:26;;;;;;;12.73;3.22;;;13.60;99.90;;;12.64;89.03;100693.59;4138349;28;20026;-69
2021/05/17 06:45:28;;;;;;;10.00;2.95;;;13.70;99.90;;;12.64;87.97;100712.13;4136913;28;20034;-69
2021/05/17 06:47:29;;;;;;;10.25;2.60;;;13.80;99.90;;;12.45;87.59;100715.16;4137040;28;20486;-69
2021/05/17 06:49:31;;;;;;;10.13;2.83;;;13.70;99.90;;;12.39;87.77;100716.69;4136703;28;20037;-68
2021/05/17 06:51:32;;;;;;;10.70;2.70;;;13.60;99.90;;;12.50;87.50;100718.13;4137098;28;20057;-68
2021/05/17 06:53:33;;;;;;;10.05;2.33;;;13.60;99.90;;;12.49;88.32;100719.13;4136892;28;20034;-68
2021/05/17 06:55:42;;;;;;;14.48;4.13;;;13.60;99.90;;;12.43;87.89;100717.13;4151250;28;20026;-68
2021/05/17 07:00:00;;;;;;;9.60;2.25;;;13.60;99.90;;;12.56;86.85;100720.09;4136916;28;20077;-68
2021/05/17 07:02:02;;;;;;;7.93;2.28;;;13.60;99.90;;;12.57;88.16;100724.41;4137822;28;20038;-69
2021/05/17 07:04:03;;;;;;;11.25;2.65;;;13.70;99.90;;;12.96;88.13;100735.84;4136876;28;20018;-69
2021/05/17 07:06:05;;;;;;;8.77;2.83;;;13.90;99.90;;;12.59;86.85;100730.34;4137948;28;20109;-69
2021/05/17 07:12:29;;;;;;;11.18;2.35;;;13.90;99.90;;;12.52;86.55;100748.72;4137724;28;20146;-68
2021/05/17 07:14:30;;;;;;;8.70;2.97;;;13.80;99.90;;;12.27;87.87;100744.47;4136663;28;20030;-70
2021/05/17 07:16:31;;;;;;;10.95;2.42;;;13.70;99.90;;;12.09;88.55;100757.03;4137521;28;20018;-70
2021/05/17 07:18:32;;;;;;;8.60;2.30;;;13.50;99.90;;;12.28;88.11;100761.13;4137959;28;20076;-70
2021/05/17 07:23:37;;;;;;;9.73;2.95;;;13.50;99.90;;;12.20;86.86;100754.88;4137744;28;20028;-70
2021/05/17 07:25:13;;;;;;;9.65;2.13;;;13.60;99.90;;;12.41;86.14;100762.28;4137998;28;20086;-70
2021/05/17 07:27:14;;;;;;;8.48;1.85;;;13.60;99.90;;;12.60;88.05;100758.47;4137568;28;20113;-70
2021/05/17 07:29:17;;;;;;;8.10;2.20;;;13.80;99.90;;;12.74;86.09;100763.88;4137548;28;20027;-70
2021/05/17 07:31:18;;;;;;;8.32;2.30;;;13.80;99.90;;;12.97;87.12;100773.75;4137462;28;20034;-70
2021/05/17 07:33:19;;;;;;;9.52;2.13;;;14.00;99.90;;;12.97;87.09;100777.22;4137597;28;20109;-70
2021/05/17 07:35:20;;;;;;;6.40;1.83;;;14.10;99.90;;;12.68;88.58;100774.31;4136450;28;20533;-70
2021/05/17 07:37:22;;;;;;;13.45;2.47;;;14.10;99.90;;;12.74;86.80;100771.84;4136367;28;20026;-70
2021/05/17 07:39:22;;;;;;;7.00;2.10;;;14.10;99.90;;;12.86;85.43;100772.28;4137387;28;20153;-70
2021/05/17 07:41:23;;;;;;;6.07;2.28;;;14.20;99.90;;;12.96;85.34;100780.84;4137216;28;20023;-70
2021/05/17 07:43:25;;;;;;;8.57;2.92;;;14.20;99.90;;;13.10;85.46;100787.31;4137501;28;20037;-70
2021/05/17 07:45:26;;;;;;;9.70;2.60;;;14.30;99.90;;;12.47;85.85;100787.25;4136265;28;20027;-70
2021/05/17 07:47:27;;;;;;;9.88;2.05;;;14.00;99.90;;;12.38;87.89;100793.53;4136075;28;20030;-70
2021/05/17 07:49:37;;;;;;;6.18;2.10;;;13.80;99.90;;;12.62;86.54;100796.16;4137405;28;20363;-70
2021/05/17 07:51:42;;;;;;;8.82;2.22;;;13.80;99.90;;;12.88;83.71;100804.72;4137249;28;20113;-70
2021/05/17 07:53:42;;;;;;;7.63;1.70;;;13.90;99.90;;;12.97;82.11;100826.69;4137226;28;20405;-70
2021/05/17 07:55:45;;;;;;;10.40;2.40;;;14.20;99.90;;;13.00;84.43;100808.66;4149948;28;20034;-70
2021/05/17 07:57:46;;;;;;;11.18;2.35;;;14.30;99.90;;;12.87;82.62;100799.59;4137033;28;20133;-70
2021/05/17 07:59:47;;;;;;;12.00;2.63;;;14.30;99.90;;;12.89;82.48;100813.47;4137094;28;20030;-70
2021/05/17 08:01:47;;;;;;;8.93;1.60;;;14.40;99.90;;;12.90;82.17;100813.34;4135546;28;20383;-70
2021/05/17 08:03:49;;;;;;;10.45;2.20;;;14.40;99.90;;;12.94;82.92;100801.38;4137100;28;20034;-70
2021/05/17 08:05:50;;;;;;;7.18;1.92;;;14.30;99.90;;;13.01;82.50;100810.31;4136809;28;20022;-70
2021/05/17 08:07:51;;;;;;;5.72;2.15;;;14.40;99.90;;;13.03;82.24;100807.47;4136953;28;20030;-70
2021/05/17 08:09:54;;;;;;;9.80;2.42;;;14.30;99.90;;;13.29;81.07;100827.44;4146626;28;20022;-70
2021/05/17 08:11:55;;;;;;;8.32;1.70;;;14.40;99.90;;;13.35;82.36;100825.13;4155023;28;20030;-70
2021/05/17 08:13:56;;;;;;;8.13;2.40;;;14.30;99.90;;;13.52;81.76;100809.00;4153309;28;20030;-70
2021/05/17 08:15:57;;;;;;;6.45;2.15;;;14.50;99.90;;;13.48;79.01;100831.53;4153024;28;20033;-70
2021/05/17 08:17:58;;;;;;;6.35;2.53;;;14.60;99.90;;;13.47;81.05;100829.06;4153015;28;20076;-70
2021/05/17 08:20:00;;;;;;;8.73;1.80;;;14.80;99.90;;;13.70;79.94;100832.59;4152983;28;20042;-70
2021/05/17 08:22:04;;;;;;;7.95;2.47;;;15.00;99.90;;;13.56;79.14;100833.31;4151717;28;20064;-70
2021/05/17 08:24:05;;;;;;;7.13;2.17;;;15.00;99.90;;;13.60;79.07;100845.22;4153232;28;20029;-70
2021/05/17 08:26:07;;;;;;;6.93;2.22;;;15.00;99.90;;;13.60;77.66;100832.78;4152876;28;20018;-70
2021/05/17 08:28:08;;;;;;;5.88;2.42;;;14.90;99.90;;;13.73;79.08;100848.16;4153084;28;20049;-70
2021/05/17 08:30:11;;;;;;;5.32;1.65;;;15.00;99.90;;;13.56;76.96;100839.44;4152832;28;20022;-70
2021/05/17 08:32:12;;;;;;;8.73;1.60;;;14.90;99.90;;;14.07;80.14;100837.97;4152866;28;20109;-70
2021/05/17 08:34:12;;;;;;;8.32;2.58;;;15.20;99.90;;;14.08;76.98;100837.00;4151576;28;20436;-70
2021/05/17 08:36:14;;;;;;;6.65;1.83;;;15.60;99.90;;;13.50;76.36;100831.38;4152326;28;20033;-70
2021/05/17 08:38:16;;;;;;;6.22;2.47;;;15.40;99.90;;;14.10;77.76;100829.66;4151675;28;20100;-70
2021/05/17 08:40:17;;;;;;;8.20;2.42;;;15.50;99.90;;;14.39;78.99;100836.97;4152687;28;20034;-70
2021/05/17 08:42:18;;;;;;;11.00;2.30;;;15.70;99.90;;;14.29;76.29;100833.69;4152499;28;20029;-70
2021/05/17 08:44:20;;;;;;;6.32;1.90;;;15.90;99.90;;;14.68;76.68;100838.84;4152735;28;20061;-70
2021/05/17 08:46:20;;;;;;;7.63;2.00;;;16.10;99.90;;;14.70;75.30;100850.13;4152862;28;20153;-70
2021/05/17 08:48:22;;;;;;;8.68;2.60;;;16.20;99.90;;;14.58;75.24;100854.19;4152580;28;20397;-70